sensor_id;sensor_type;location;lat;lon;timestamp;P1;durP1;ratioP1;P2;durP2;ratioP2
50757;SDS011;36732;47.980;11.652;2022-11-11T00:00:32;1.15;;;1.05;;
50757;SDS011;36732;47.980;11.652;2022-11-11T00:02:59;1.35;;;1.20;;
50757;SDS011;36732;47.980;11.652;2022-11-11T00:05:25;1.83;;;1.20;;
50757;SDS011;36732;47.980;11.652;2022-11-11T00:07:52;1.45;;;1.35;;
50757;SDS011;36732;47.980;11.652;2022-11-11T00:10:24;1.85;;;1.50;;
50757;SDS011;36732;47.980;11.652;2022-11-11T00:12:51;2.33;;;1.20;;
50757;SDS011;36732;47.980;11.652;2022-11-11T00:15:17;1.95;;;1.45;;
50757;SDS011;36732;47.980;11.652;2022-11-11T00:17:42;1.80;;;1.40;;
50757;SDS011;36732;47.980;11.652;2022-11-11T00:20:27;1.20;;;1.10;;
50757;SDS011;36732;47.980;11.652;2022-11-11T00:23:20;2.38;;;1.40;;
50757;SDS011;36732;47.980;11.652;2022-11-11T00:26:10;1.63;;;1.00;;
50757;SDS011;36732;47.980;11.652;2022-11-11T00:28:38;2.85;;;1.20;;
50757;SDS011;36732;47.980;11.652;2022-11-11T00:31:05;1.15;;;1.05;;
50757;SDS011;36732;47.980;11.652;2022-11-11T00:33:35;2.05;;;1.25;;
50757;SDS011;36732;47.980;11.652;2022-11-11T00:36:02;1.85;;;1.05;;
50757;SDS011;36732;47.980;11.652;2022-11-11T00:38:28;1.30;;;1.00;;
50757;SDS011;36732;47.980;11.652;2022-11-11T00:41:10;4.70;;;0.82;;
50757;SDS011;36732;47.980;11.652;2022-11-11T00:43:41;1.33;;;0.77;;
50757;SDS011;36732;47.980;11.652;2022-11-11T00:46:08;3.45;;;0.70;;
50757;SDS011;36732;47.980;11.652;2022-11-11T00:48:53;1.65;;;1.00;;
50757;SDS011;36732;47.980;11.652;2022-11-11T00:51:38;1.50;;;1.08;;
50757;SDS011;36732;47.980;11.652;2022-11-11T00:54:04;1.50;;;1.25;;
50757;SDS011;36732;47.980;11.652;2022-11-11T00:56:30;3.05;;;1.30;;
50757;SDS011;36732;47.980;11.652;2022-11-11T00:58:56;1.10;;;0.80;;
50757;SDS011;36732;47.980;11.652;2022-11-11T01:01:22;0.80;;;0.80;;
50757;SDS011;36732;47.980;11.652;2022-11-11T01:03:48;0.70;;;0.63;;
50757;SDS011;36732;47.980;11.652;2022-11-11T01:06:14;0.88;;;0.80;;
50757;SDS011;36732;47.980;11.652;2022-11-11T01:08:40;1.27;;;1.15;;
50757;SDS011;36732;47.980;11.652;2022-11-11T01:11:13;1.23;;;1.13;;
50757;SDS011;36732;47.980;11.652;2022-11-11T01:13:41;1.63;;;0.82;;
50757;SDS011;36732;47.980;11.652;2022-11-11T01:16:10;0.70;;;0.70;;
50757;SDS011;36732;47.980;11.652;2022-11-11T01:18:39;0.90;;;0.80;;
50757;SDS011;36732;47.980;11.652;2022-11-11T01:21:06;1.80;;;1.10;;
50757;SDS011;36732;47.980;11.652;2022-11-11T01:26:26;0.80;;;0.80;;
50757;SDS011;36732;47.980;11.652;2022-11-11T01:28:53;1.83;;;0.75;;
50757;SDS011;36732;47.980;11.652;2022-11-11T01:31:21;1.10;;;0.90;;
50757;SDS011;36732;47.980;11.652;2022-11-11T01:33:49;1.20;;;0.88;;
50757;SDS011;36732;47.980;11.652;2022-11-11T01:36:16;1.48;;;1.05;;
50757;SDS011;36732;47.980;11.652;2022-11-11T01:38:47;2.05;;;0.70;;
50757;SDS011;36732;47.980;11.652;2022-11-11T01:41:16;1.10;;;0.80;;
50757;SDS011;36732;47.980;11.652;2022-11-11T01:52:23;1.85;;;0.70;;
50757;SDS011;36732;47.980;11.652;2022-11-11T01:54:58;1.45;;;0.90;;
50757;SDS011;36732;47.980;11.652;2022-11-11T04:52:14;0.93;;;0.60;;
50757;SDS011;36732;47.980;11.652;2022-11-11T04:54:53;4.07;;;0.57;;
50757;SDS011;36732;47.980;11.652;2022-11-11T04:57:42;0.80;;;0.50;;
50757;SDS011;36732;47.980;11.652;2022-11-11T05:02:40;2.35;;;0.60;;
50757;SDS011;36732;47.980;11.652;2022-11-11T05:05:25;2.30;;;0.70;;
50757;SDS011;36732;47.980;11.652;2022-11-11T05:07:52;0.77;;;0.60;;
50757;SDS011;36732;47.980;11.652;2022-11-11T05:10:36;1.00;;;0.65;;
50757;SDS011;36732;47.980;11.652;2022-11-11T05:13:03;1.98;;;0.50;;
50757;SDS011;36732;47.980;11.652;2022-11-11T05:15:47;1.90;;;0.60;;
50757;SDS011;36732;47.980;11.652;2022-11-11T05:18:32;0.50;;;0.50;;
50757;SDS011;36732;47.980;11.652;2022-11-11T05:21:21;2.28;;;0.70;;
50757;SDS011;36732;47.980;11.652;2022-11-11T05:23:52;0.40;;;0.40;;
50757;SDS011;36732;47.980;11.652;2022-11-11T05:26:36;0.65;;;0.57;;
50757;SDS011;36732;47.980;11.652;2022-11-11T05:29:02;0.85;;;0.80;;
50757;SDS011;36732;47.980;11.652;2022-11-11T05:31:28;1.00;;;0.90;;
50757;SDS011;36732;47.980;11.652;2022-11-11T05:33:54;0.70;;;0.60;;
50757;SDS011;36732;47.980;11.652;2022-11-11T05:36:20;1.40;;;0.65;;
50757;SDS011;36732;47.980;11.652;2022-11-11T05:38:47;0.47;;;0.40;;
50757;SDS011;36732;47.980;11.652;2022-11-11T05:41:14;0.57;;;0.57;;
50757;SDS011;36732;47.980;11.652;2022-11-11T05:43:39;1.80;;;0.70;;
50757;SDS011;36732;47.980;11.652;2022-11-11T05:46:05;0.93;;;0.60;;
50757;SDS011;36732;47.980;11.652;2022-11-11T05:48:31;0.57;;;0.52;;
50757;SDS011;36732;47.980;11.652;2022-11-11T05:50:57;1.13;;;0.73;;
50757;SDS011;36732;47.980;11.652;2022-11-11T05:53:23;2.63;;;0.70;;
50757;SDS011;36732;47.980;11.652;2022-11-11T05:55:49;1.15;;;0.60;;
50757;SDS011;36732;47.980;11.652;2022-11-11T05:58:18;1.25;;;0.80;;
50757;SDS011;36732;47.980;11.652;2022-11-11T06:00:45;0.70;;;0.70;;
50757;SDS011;36732;47.980;11.652;2022-11-11T06:03:11;1.33;;;1.02;;
50757;SDS011;36732;47.980;11.652;2022-11-11T06:05:37;0.93;;;0.85;;
50757;SDS011;36732;47.980;11.652;2022-11-11T06:08:03;1.88;;;0.70;;
50757;SDS011;36732;47.980;11.652;2022-11-11T06:10:29;1.02;;;0.60;;
50757;SDS011;36732;47.980;11.652;2022-11-11T06:12:58;1.92;;;0.55;;
50757;SDS011;36732;47.980;11.652;2022-11-11T06:15:35;4.35;;;3.45;;
50757;SDS011;36732;47.980;11.652;2022-11-11T06:18:05;11.05;;;7.72;;
50757;SDS011;36732;47.980;11.652;2022-11-11T06:20:31;13.88;;;10.23;;
50757;SDS011;36732;47.980;11.652;2022-11-11T06:23:01;11.30;;;8.55;;
50757;SDS011;36732;47.980;11.652;2022-11-11T06:25:29;10.52;;;7.50;;
50757;SDS011;36732;47.980;11.652;2022-11-11T06:28:15;6.07;;;4.78;;
50757;SDS011;36732;47.980;11.652;2022-11-11T06:30:43;6.25;;;3.20;;
50757;SDS011;36732;47.980;11.652;2022-11-11T06:33:09;6.32;;;2.97;;
50757;SDS011;36732;47.980;11.652;2022-11-11T06:35:36;5.40;;;2.58;;
50757;SDS011;36732;47.980;11.652;2022-11-11T06:38:04;2.60;;;2.05;;
50757;SDS011;36732;47.980;11.652;2022-11-11T06:40:31;3.65;;;1.92;;
50757;SDS011;36732;47.980;11.652;2022-11-11T06:42:57;5.85;;;2.00;;
50757;SDS011;36732;47.980;11.652;2022-11-11T06:45:25;3.45;;;2.00;;
50757;SDS011;36732;47.980;11.652;2022-11-11T06:47:53;3.78;;;1.70;;
50757;SDS011;36732;47.980;11.652;2022-11-11T06:50:19;3.13;;;1.60;;
50757;SDS011;36732;47.980;11.652;2022-11-11T06:52:45;2.88;;;1.60;;
50757;SDS011;36732;47.980;11.652;2022-11-11T06:55:11;7.00;;;2.00;;
50757;SDS011;36732;47.980;11.652;2022-11-11T06:57:38;2.80;;;1.80;;
50757;SDS011;36732;47.980;11.652;2022-11-11T07:00:04;3.20;;;2.10;;
50757;SDS011;36732;47.980;11.652;2022-11-11T07:02:31;5.97;;;2.42;;
50757;SDS011;36732;47.980;11.652;2022-11-11T07:04:57;2.03;;;1.55;;
50757;SDS011;36732;47.980;11.652;2022-11-11T07:07:24;1.75;;;1.40;;
50757;SDS011;36732;47.980;11.652;2022-11-11T07:09:50;1.48;;;1.33;;
50757;SDS011;36732;47.980;11.652;2022-11-11T07:12:16;1.65;;;0.90;;
50757;SDS011;36732;47.980;11.652;2022-11-11T07:14:42;1.75;;;0.90;;
50757;SDS011;36732;47.980;11.652;2022-11-11T07:17:08;1.10;;;0.98;;
50757;SDS011;36732;47.980;11.652;2022-11-11T07:19:33;2.30;;;2.00;;
50757;SDS011;36732;47.980;11.652;2022-11-11T07:21:59;3.47;;;2.90;;
50757;SDS011;36732;47.980;11.652;2022-11-11T07:24:25;3.35;;;2.60;;
50757;SDS011;36732;47.980;11.652;2022-11-11T07:26:51;3.22;;;2.70;;
50757;SDS011;36732;47.980;11.652;2022-11-11T07:29:17;2.55;;;2.35;;
50757;SDS011;36732;47.980;11.652;2022-11-11T07:31:43;7.20;;;2.10;;
50757;SDS011;36732;47.980;11.652;2022-11-11T07:34:09;1.98;;;1.30;;
50757;SDS011;36732;47.980;11.652;2022-11-11T07:36:35;2.85;;;1.58;;
50757;SDS011;36732;47.980;11.652;2022-11-11T07:39:00;4.13;;;1.48;;
50757;SDS011;36732;47.980;11.652;2022-11-11T07:41:26;3.88;;;1.27;;
50757;SDS011;36732;47.980;11.652;2022-11-11T07:43:52;2.20;;;1.48;;
50757;SDS011;36732;47.980;11.652;2022-11-11T07:46:17;3.88;;;1.20;;
50757;SDS011;36732;47.980;11.652;2022-11-11T07:48:43;5.55;;;1.60;;
50757;SDS011;36732;47.980;11.652;2022-11-11T07:51:09;2.38;;;1.10;;
50757;SDS011;36732;47.980;11.652;2022-11-11T07:53:35;1.35;;;1.02;;
50757;SDS011;36732;47.980;11.652;2022-11-11T07:56:00;2.28;;;1.00;;
50757;SDS011;36732;47.980;11.652;2022-11-11T07:58:26;4.38;;;1.10;;
50757;SDS011;36732;47.980;11.652;2022-11-11T08:00:52;0.93;;;0.90;;
50757;SDS011;36732;47.980;11.652;2022-11-11T08:03:17;2.95;;;1.10;;
50757;SDS011;36732;47.980;11.652;2022-11-11T08:05:43;1.52;;;0.95;;
50757;SDS011;36732;47.980;11.652;2022-11-11T08:08:09;2.25;;;1.40;;
50757;SDS011;36732;47.980;11.652;2022-11-11T08:10:35;1.92;;;1.40;;
50757;SDS011;36732;47.980;11.652;2022-11-11T08:13:01;1.30;;;1.20;;
50757;SDS011;36732;47.980;11.652;2022-11-11T08:15:46;2.05;;;1.27;;
50757;SDS011;36732;47.980;11.652;2022-11-11T08:18:14;1.23;;;0.90;;
50757;SDS011;36732;47.980;11.652;2022-11-11T08:20:40;1.10;;;0.90;;
50757;SDS011;36732;47.980;11.652;2022-11-11T08:23:06;2.88;;;0.90;;
50757;SDS011;36732;47.980;11.652;2022-11-11T08:25:34;2.25;;;0.90;;
50757;SDS011;36732;47.980;11.652;2022-11-11T08:28:03;1.20;;;1.00;;
50757;SDS011;36732;47.980;11.652;2022-11-11T08:30:30;1.67;;;1.00;;
50757;SDS011;36732;47.980;11.652;2022-11-11T08:33:00;1.67;;;1.30;;
50757;SDS011;36732;47.980;11.652;2022-11-11T08:35:29;2.05;;;1.67;;
50757;SDS011;36732;47.980;11.652;2022-11-11T08:37:59;5.88;;;2.80;;
50757;SDS011;36732;47.980;11.652;2022-11-11T08:40:26;4.03;;;2.42;;
50757;SDS011;36732;47.980;11.652;2022-11-11T08:42:55;3.92;;;2.40;;
50757;SDS011;36732;47.980;11.652;2022-11-11T08:45:23;4.20;;;2.42;;
50757;SDS011;36732;47.980;11.652;2022-11-11T08:47:50;2.50;;;2.05;;
50757;SDS011;36732;47.980;11.652;2022-11-11T08:50:16;5.30;;;1.80;;
50757;SDS011;36732;47.980;11.652;2022-11-11T08:52:48;4.70;;;1.83;;
50757;SDS011;36732;47.980;11.652;2022-11-11T08:57:41;5.40;;;2.78;;
50757;SDS011;36732;47.980;11.652;2022-11-11T09:00:07;8.13;;;3.28;;
50757;SDS011;36732;47.980;11.652;2022-11-11T09:02:34;6.70;;;2.75;;
50757;SDS011;36732;47.980;11.652;2022-11-11T09:05:01;3.63;;;2.17;;
50757;SDS011;36732;47.980;11.652;2022-11-11T09:07:27;4.18;;;1.90;;
50757;SDS011;36732;47.980;11.652;2022-11-11T09:09:52;3.58;;;2.15;;
50757;SDS011;36732;47.980;11.652;2022-11-11T09:12:18;1.50;;;1.25;;
50757;SDS011;36732;47.980;11.652;2022-11-11T09:14:44;2.83;;;1.55;;
50757;SDS011;36732;47.980;11.652;2022-11-11T09:17:10;2.28;;;1.20;;
50757;SDS011;36732;47.980;11.652;2022-11-11T09:19:36;2.25;;;1.40;;
50757;SDS011;36732;47.980;11.652;2022-11-11T09:22:01;3.58;;;1.40;;
50757;SDS011;36732;47.980;11.652;2022-11-11T09:24:28;1.80;;;1.35;;
50757;SDS011;36732;47.980;11.652;2022-11-11T09:26:53;3.67;;;1.40;;
50757;SDS011;36732;47.980;11.652;2022-11-11T09:29:19;1.80;;;1.25;;
50757;SDS011;36732;47.980;11.652;2022-11-11T09:31:45;2.00;;;1.10;;
50757;SDS011;36732;47.980;11.652;2022-11-11T09:34:11;1.73;;;0.90;;
50757;SDS011;36732;47.980;11.652;2022-11-11T09:36:38;1.25;;;0.70;;
50757;SDS011;36732;47.980;11.652;2022-11-11T09:39:03;1.00;;;0.70;;
50757;SDS011;36732;47.980;11.652;2022-11-11T09:50:17;0.60;;;0.60;;
50757;SDS011;36732;47.980;11.652;2022-11-11T09:53:02;1.42;;;0.85;;
50757;SDS011;36732;47.980;11.652;2022-11-11T09:55:48;1.15;;;0.70;;
50757;SDS011;36732;47.980;11.652;2022-11-11T09:58:22;1.20;;;0.90;;
50757;SDS011;36732;47.980;11.652;2022-11-11T10:01:11;1.02;;;0.73;;
50757;SDS011;36732;47.980;11.652;2022-11-11T10:03:58;0.77;;;0.60;;
50757;SDS011;36732;47.980;11.652;2022-11-11T10:06:32;0.98;;;0.70;;
50757;SDS011;36732;47.980;11.652;2022-11-11T10:09:00;1.92;;;1.00;;
50757;SDS011;36732;47.980;11.652;2022-11-11T10:14:23;2.72;;;1.15;;
50757;SDS011;36732;47.980;11.652;2022-11-11T10:22:20;0.85;;;0.80;;
50757;SDS011;36732;47.980;11.652;2022-11-11T10:27:38;1.05;;;0.60;;
50757;SDS011;36732;47.980;11.652;2022-11-11T10:30:13;1.33;;;0.82;;
50757;SDS011;36732;47.980;11.652;2022-11-11T10:35:40;2.60;;;1.00;;
50757;SDS011;36732;47.980;11.652;2022-11-11T10:40:53;0.93;;;0.65;;
50757;SDS011;36732;47.980;11.652;2022-11-11T10:43:24;0.60;;;0.60;;
50757;SDS011;36732;47.980;11.652;2022-11-11T10:51:21;0.73;;;0.70;;
50757;SDS011;36732;47.980;11.652;2022-11-11T10:56:42;0.70;;;0.70;;
50757;SDS011;36732;47.980;11.652;2022-11-11T10:59:15;1.35;;;0.90;;
50757;SDS011;36732;47.980;11.652;2022-11-11T11:01:58;2.08;;;1.00;;
50757;SDS011;36732;47.980;11.652;2022-11-11T11:04:51;0.50;;;0.50;;
50757;SDS011;36732;47.980;11.652;2022-11-11T11:07:27;0.85;;;0.50;;
50757;SDS011;36732;47.980;11.652;2022-11-11T11:10:23;0.73;;;0.52;;
50757;SDS011;36732;47.980;11.652;2022-11-11T11:13:12;2.63;;;0.98;;
50757;SDS011;36732;47.980;11.652;2022-11-11T11:15:46;1.90;;;0.93;;
50757;SDS011;36732;47.980;11.652;2022-11-11T11:18:19;3.58;;;0.70;;
50757;SDS011;36732;47.980;11.652;2022-11-11T11:20:58;2.90;;;0.80;;
50757;SDS011;36732;47.980;11.652;2022-11-11T11:23:40;0.82;;;0.73;;
50757;SDS011;36732;47.980;11.652;2022-11-11T11:26:11;0.80;;;0.60;;
50757;SDS011;36732;47.980;11.652;2022-11-11T11:28:51;0.50;;;0.50;;
50757;SDS011;36732;47.980;11.652;2022-11-11T11:31:23;0.90;;;0.60;;
50757;SDS011;36732;47.980;11.652;2022-11-11T11:34:06;1.02;;;0.57;;
50757;SDS011;36732;47.980;11.652;2022-11-11T11:36:32;1.58;;;0.90;;
50757;SDS011;36732;47.980;11.652;2022-11-11T11:38:58;0.75;;;0.60;;
50757;SDS011;36732;47.980;11.652;2022-11-11T11:41:35;0.80;;;0.73;;
50757;SDS011;36732;47.980;11.652;2022-11-11T11:47:24;1.83;;;0.73;;
50757;SDS011;36732;47.980;11.652;2022-11-11T11:50:16;0.50;;;0.50;;
50757;SDS011;36732;47.980;11.652;2022-11-11T11:56:19;1.10;;;1.00;;
50757;SDS011;36732;47.980;11.652;2022-11-11T12:02:05;1.30;;;1.10;;
50757;SDS011;36732;47.980;11.652;2022-11-11T12:08:03;1.20;;;0.73;;
50757;SDS011;36732;47.980;11.652;2022-11-11T12:10:57;1.45;;;0.90;;
50757;SDS011;36732;47.980;11.652;2022-11-11T12:14:36;2.38;;;0.95;;
50757;SDS011;36732;47.980;11.652;2022-11-11T12:22:56;0.60;;;0.50;;
50757;SDS011;36732;47.980;11.652;2022-11-11T12:34:28;1.92;;;1.63;;
50757;SDS011;36732;47.980;11.652;2022-11-11T12:37:23;3.50;;;2.42;;
50757;SDS011;36732;47.980;11.652;2022-11-11T12:40:14;5.93;;;3.28;;
50757;SDS011;36732;47.980;11.652;2022-11-11T12:50:06;1.48;;;1.05;;
50757;SDS011;36732;47.980;11.652;2022-11-11T12:55:41;1.30;;;1.20;;
50757;SDS011;36732;47.980;11.652;2022-11-11T13:01:09;2.05;;;1.30;;
50757;SDS011;36732;47.980;11.652;2022-11-11T13:07:27;1.80;;;1.30;;
50757;SDS011;36732;47.980;11.652;2022-11-11T13:15:47;1.08;;;0.80;;
50757;SDS011;36732;47.980;11.652;2022-11-11T13:18:15;1.45;;;0.90;;
50757;SDS011;36732;47.980;11.652;2022-11-11T13:21:12;2.50;;;0.70;;
50757;SDS011;36732;47.980;11.652;2022-11-11T13:24:12;0.90;;;0.70;;
50757;SDS011;36732;47.980;11.652;2022-11-11T13:26:44;0.93;;;0.70;;
50757;SDS011;36732;47.980;11.652;2022-11-11T13:32:44;0.93;;;0.60;;
50757;SDS011;36732;47.980;11.652;2022-11-11T13:37:54;0.50;;;0.47;;
50757;SDS011;36732;47.980;11.652;2022-11-11T13:40:32;1.20;;;0.70;;
50757;SDS011;36732;47.980;11.652;2022-11-11T13:43:05;1.40;;;0.80;;
50757;SDS011;36732;47.980;11.652;2022-11-11T13:45:51;1.10;;;0.50;;
50757;SDS011;36732;47.980;11.652;2022-11-11T13:48:21;2.30;;;0.60;;
50757;SDS011;36732;47.980;11.652;2022-11-11T13:51:10;0.90;;;0.68;;
50757;SDS011;36732;47.980;11.652;2022-11-11T13:53:47;0.50;;;0.47;;
50757;SDS011;36732;47.980;11.652;2022-11-11T13:56:26;2.10;;;0.80;;
50757;SDS011;36732;47.980;11.652;2022-11-11T13:59:06;2.00;;;0.70;;
50757;SDS011;36732;47.980;11.652;2022-11-11T14:01:45;0.50;;;0.50;;
50757;SDS011;36732;47.980;11.652;2022-11-11T14:04:11;0.40;;;0.40;;
50757;SDS011;36732;47.980;11.652;2022-11-11T14:06:47;1.00;;;0.60;;
50757;SDS011;36732;47.980;11.652;2022-11-11T14:12:31;0.77;;;0.63;;
50757;SDS011;36732;47.980;11.652;2022-11-11T14:15:01;0.60;;;0.55;;
50757;SDS011;36732;47.980;11.652;2022-11-11T14:17:31;1.33;;;0.70;;
50757;SDS011;36732;47.980;11.652;2022-11-11T14:19:58;1.45;;;0.70;;
50757;SDS011;36732;47.980;11.652;2022-11-11T14:26:34;1.42;;;0.70;;
50757;SDS011;36732;47.980;11.652;2022-11-11T14:28:43;2.13;;;1.20;;
50757;SDS011;36732;47.980;11.652;2022-11-11T14:54:56;1.10;;;0.75;;
50757;SDS011;36732;47.980;11.652;2022-11-11T14:57:33;2.22;;;1.33;;
50757;SDS011;36732;47.980;11.652;2022-11-11T15:08:21;11.85;;;7.43;;
50757;SDS011;36732;47.980;11.652;2022-11-11T15:19:53;18.40;;;13.35;;
50757;SDS011;36732;47.980;11.652;2022-11-11T15:23:02;15.38;;;10.73;;
50757;SDS011;36732;47.980;11.652;2022-11-11T15:26:00;6.80;;;5.70;;
50757;SDS011;36732;47.980;11.652;2022-11-11T15:35:24;10.25;;;6.75;;
50757;SDS011;36732;47.980;11.652;2022-11-11T15:37:26;13.15;;;10.85;;
50757;SDS011;36732;47.980;11.652;2022-11-11T15:39:54;10.05;;;8.05;;
50757;SDS011;36732;47.980;11.652;2022-11-11T15:44:55;9.30;;;6.57;;
50757;SDS011;36732;47.980;11.652;2022-11-11T15:47:24;7.43;;;6.45;;
50757;SDS011;36732;47.980;11.652;2022-11-11T15:49:50;4.63;;;3.50;;
50757;SDS011;36732;47.980;11.652;2022-11-11T15:54:52;4.20;;;3.38;;
50757;SDS011;36732;47.980;11.652;2022-11-11T15:59:48;2.75;;;2.10;;
50757;SDS011;36732;47.980;11.652;2022-11-11T16:02:21;4.68;;;2.15;;
50757;SDS011;36732;47.980;11.652;2022-11-11T16:04:54;2.33;;;1.88;;
50757;SDS011;36732;47.980;11.652;2022-11-11T16:07:47;4.78;;;2.45;;
50757;SDS011;36732;47.980;11.652;2022-11-11T16:10:14;3.90;;;2.97;;
50757;SDS011;36732;47.980;11.652;2022-11-11T16:12:52;5.00;;;2.40;;
50757;SDS011;36732;47.980;11.652;2022-11-11T16:17:58;2.95;;;1.92;;
50757;SDS011;36732;47.980;11.652;2022-11-11T16:20:38;6.03;;;2.20;;
50757;SDS011;36732;47.980;11.652;2022-11-11T16:23:10;4.22;;;2.40;;
50757;SDS011;36732;47.980;11.652;2022-11-11T16:25:41;3.45;;;2.42;;
50757;SDS011;36732;47.980;11.652;2022-11-11T16:28:09;4.50;;;2.45;;
50757;SDS011;36732;47.980;11.652;2022-11-11T16:30:36;4.43;;;2.10;;
50757;SDS011;36732;47.980;11.652;2022-11-11T16:33:03;2.95;;;2.22;;
50757;SDS011;36732;47.980;11.652;2022-11-11T16:35:36;3.83;;;2.40;;
50757;SDS011;36732;47.980;11.652;2022-11-11T16:38:04;3.83;;;2.63;;
50757;SDS011;36732;47.980;11.652;2022-11-11T16:43:11;9.48;;;4.10;;
50757;SDS011;36732;47.980;11.652;2022-11-11T16:45:44;8.00;;;4.55;;
50757;SDS011;36732;47.980;11.652;2022-11-11T16:51:07;5.47;;;3.30;;
50757;SDS011;36732;47.980;11.652;2022-11-11T16:53:39;6.80;;;2.65;;
50757;SDS011;36732;47.980;11.652;2022-11-11T16:56:16;4.05;;;2.35;;
50757;SDS011;36732;47.980;11.652;2022-11-11T16:58:55;4.47;;;2.17;;
50757;SDS011;36732;47.980;11.652;2022-11-11T17:01:26;4.43;;;1.95;;
50757;SDS011;36732;47.980;11.652;2022-11-11T17:03:57;2.75;;;1.98;;
50757;SDS011;36732;47.980;11.652;2022-11-11T17:12:00;4.38;;;3.30;;
50757;SDS011;36732;47.980;11.652;2022-11-11T17:14:27;5.28;;;3.95;;
50757;SDS011;36732;47.980;11.652;2022-11-11T17:16:58;6.47;;;3.80;;
50757;SDS011;36732;47.980;11.652;2022-11-11T17:19:25;4.97;;;3.90;;
50757;SDS011;36732;47.980;11.652;2022-11-11T17:21:50;5.28;;;3.95;;
50757;SDS011;36732;47.980;11.652;2022-11-11T17:24:16;5.68;;;4.15;;
50757;SDS011;36732;47.980;11.652;2022-11-11T17:26:42;5.38;;;4.03;;
50757;SDS011;36732;47.980;11.652;2022-11-11T17:29:08;13.02;;;5.75;;
50757;SDS011;36732;47.980;11.652;2022-11-11T17:31:35;8.00;;;5.40;;
50757;SDS011;36732;47.980;11.652;2022-11-11T17:34:08;9.15;;;4.93;;
50757;SDS011;36732;47.980;11.652;2022-11-11T17:36:34;9.03;;;4.63;;
50757;SDS011;36732;47.980;11.652;2022-11-11T17:39:00;8.25;;;6.22;;
50757;SDS011;36732;47.980;11.652;2022-11-11T17:41:26;10.52;;;7.20;;
50757;SDS011;36732;47.980;11.652;2022-11-11T17:43:52;11.43;;;7.93;;
50757;SDS011;36732;47.980;11.652;2022-11-11T17:46:18;12.68;;;7.30;;
50757;SDS011;36732;47.980;11.652;2022-11-11T17:48:44;10.70;;;7.00;;
50757;SDS011;36732;47.980;11.652;2022-11-11T17:51:09;9.50;;;6.55;;
50757;SDS011;36732;47.980;11.652;2022-11-11T17:53:35;11.25;;;6.40;;
50757;SDS011;36732;47.980;11.652;2022-11-11T17:56:04;7.22;;;5.55;;
50757;SDS011;36732;47.980;11.652;2022-11-11T17:58:32;8.73;;;5.25;;
50757;SDS011;36732;47.980;11.652;2022-11-11T18:01:10;12.23;;;6.63;;
50757;SDS011;36732;47.980;11.652;2022-11-11T18:03:41;14.02;;;7.45;;
50757;SDS011;36732;47.980;11.652;2022-11-11T18:06:07;9.05;;;7.00;;
50757;SDS011;36732;47.980;11.652;2022-11-11T18:08:34;20.65;;;11.80;;
50757;SDS011;36732;47.980;11.652;2022-11-11T18:11:00;11.52;;;7.55;;
50757;SDS011;36732;47.980;11.652;2022-11-11T18:13:28;8.35;;;5.40;;
50757;SDS011;36732;47.980;11.652;2022-11-11T18:15:55;8.20;;;4.78;;
50757;SDS011;36732;47.980;11.652;2022-11-11T18:18:23;4.25;;;3.33;;
50757;SDS011;36732;47.980;11.652;2022-11-11T18:20:49;5.25;;;4.28;;
50757;SDS011;36732;47.980;11.652;2022-11-11T18:23:15;9.65;;;3.53;;
50757;SDS011;36732;47.980;11.652;2022-11-11T18:25:41;6.75;;;3.13;;
50757;SDS011;36732;47.980;11.652;2022-11-11T18:28:07;2.30;;;2.10;;
50757;SDS011;36732;47.980;11.652;2022-11-11T18:30:33;2.92;;;2.05;;
50757;SDS011;36732;47.980;11.652;2022-11-11T18:32:59;2.10;;;1.70;;
50757;SDS011;36732;47.980;11.652;2022-11-11T18:35:25;7.72;;;2.45;;
50757;SDS011;36732;47.980;11.652;2022-11-11T18:37:51;8.07;;;2.60;;
50757;SDS011;36732;47.980;11.652;2022-11-11T18:40:17;4.53;;;3.20;;
50757;SDS011;36732;47.980;11.652;2022-11-11T18:42:42;5.10;;;3.50;;
50757;SDS011;36732;47.980;11.652;2022-11-11T18:45:08;4.38;;;3.80;;
50757;SDS011;36732;47.980;11.652;2022-11-11T18:47:34;6.53;;;4.00;;
50757;SDS011;36732;47.980;11.652;2022-11-11T18:50:00;8.88;;;6.93;;
50757;SDS011;36732;47.980;11.652;2022-11-11T18:52:25;9.43;;;6.90;;
50757;SDS011;36732;47.980;11.652;2022-11-11T18:54:51;13.00;;;8.35;;
50757;SDS011;36732;47.980;11.652;2022-11-11T18:57:17;11.55;;;8.02;;
50757;SDS011;36732;47.980;11.652;2022-11-11T18:59:43;10.88;;;8.25;;
50757;SDS011;36732;47.980;11.652;2022-11-11T19:02:09;11.15;;;7.30;;
50757;SDS011;36732;47.980;11.652;2022-11-11T19:04:36;8.85;;;7.18;;
50757;SDS011;36732;47.980;11.652;2022-11-11T19:07:02;8.70;;;6.78;;
50757;SDS011;36732;47.980;11.652;2022-11-11T19:09:27;6.90;;;6.15;;
50757;SDS011;36732;47.980;11.652;2022-11-11T19:11:53;10.57;;;8.15;;
50757;SDS011;36732;47.980;11.652;2022-11-11T19:14:19;13.52;;;9.70;;
50757;SDS011;36732;47.980;11.652;2022-11-11T19:16:45;26.58;;;15.77;;
50757;SDS011;36732;47.980;11.652;2022-11-11T19:19:11;15.55;;;12.30;;
50757;SDS011;36732;47.980;11.652;2022-11-11T19:21:37;21.23;;;15.65;;
50757;SDS011;36732;47.980;11.652;2022-11-11T19:24:07;16.77;;;12.48;;
50757;SDS011;36732;47.980;11.652;2022-11-11T19:26:33;13.68;;;9.82;;
50757;SDS011;36732;47.980;11.652;2022-11-11T19:29:00;10.15;;;7.82;;
50757;SDS011;36732;47.980;11.652;2022-11-11T19:31:29;13.82;;;10.30;;
50757;SDS011;36732;47.980;11.652;2022-11-11T19:33:56;11.25;;;8.27;;
50757;SDS011;36732;47.980;11.652;2022-11-11T19:36:23;6.95;;;5.43;;
50757;SDS011;36732;47.980;11.652;2022-11-11T19:38:52;5.70;;;3.67;;
50757;SDS011;36732;47.980;11.652;2022-11-11T19:41:21;4.88;;;3.15;;
50757;SDS011;36732;47.980;11.652;2022-11-11T19:43:49;5.72;;;3.38;;
50757;SDS011;36732;47.980;11.652;2022-11-11T19:46:18;3.40;;;2.97;;
50757;SDS011;36732;47.980;11.652;2022-11-11T19:48:45;6.15;;;3.80;;
50757;SDS011;36732;47.980;11.652;2022-11-11T19:51:15;5.15;;;3.83;;
50757;SDS011;36732;47.980;11.652;2022-11-11T19:53:43;5.20;;;3.92;;
50757;SDS011;36732;47.980;11.652;2022-11-11T19:56:13;4.78;;;3.70;;
50757;SDS011;36732;47.980;11.652;2022-11-11T19:58:41;4.32;;;3.30;;
50757;SDS011;36732;47.980;11.652;2022-11-11T20:01:09;4.28;;;3.70;;
50757;SDS011;36732;47.980;11.652;2022-11-11T20:03:41;5.00;;;3.78;;
50757;SDS011;36732;47.980;11.652;2022-11-11T20:06:21;6.05;;;4.45;;
50757;SDS011;36732;47.980;11.652;2022-11-11T20:08:57;6.55;;;5.22;;
50757;SDS011;36732;47.980;11.652;2022-11-11T20:11:31;8.35;;;6.97;;
50757;SDS011;36732;47.980;11.652;2022-11-11T20:13:58;9.25;;;7.57;;
50757;SDS011;36732;47.980;11.652;2022-11-11T20:16:24;8.98;;;7.22;;
50757;SDS011;36732;47.980;11.652;2022-11-11T20:18:56;9.82;;;7.30;;
50757;SDS011;36732;47.980;11.652;2022-11-11T20:21:24;11.48;;;7.50;;
50757;SDS011;36732;47.980;11.652;2022-11-11T20:23:50;8.65;;;7.00;;
50757;SDS011;36732;47.980;11.652;2022-11-11T20:26:17;12.77;;;7.68;;
50757;SDS011;36732;47.980;11.652;2022-11-11T20:28:44;11.70;;;7.93;;
50757;SDS011;36732;47.980;11.652;2022-11-11T20:31:11;13.10;;;7.95;;
50757;SDS011;36732;47.980;11.652;2022-11-11T20:33:42;9.73;;;7.43;;
50757;SDS011;36732;47.980;11.652;2022-11-11T20:36:11;11.02;;;7.38;;
50757;SDS011;36732;47.980;11.652;2022-11-11T20:38:38;10.55;;;8.13;;
50757;SDS011;36732;47.980;11.652;2022-11-11T20:41:11;11.18;;;6.80;;
50757;SDS011;36732;47.980;11.652;2022-11-11T20:43:39;9.18;;;7.70;;
50757;SDS011;36732;47.980;11.652;2022-11-11T20:46:06;7.72;;;6.93;;
50757;SDS011;36732;47.980;11.652;2022-11-11T20:48:38;8.63;;;6.37;;
50757;SDS011;36732;47.980;11.652;2022-11-11T20:51:07;7.47;;;6.13;;